Time;durP1;ratioP1;P1;durP2;ratioP2;P2;SDS_P1;SDS_P2;PMS_P1;PMS_P2;Temp;Humidity;BMP_temperature;BMP_pressure;BME280_temperature;BME280_humidity;BME280_pressure;Samples;Min_cycle;Max_cycle;Signal;HPM_P1;HPM_P2
2022/07/05 00:00:44;;;;;;;8.77;3.00;;;;;;;17.44;61.41;102033.84;5281024;28;20709;-75
2022/07/05 00:03:15;;;;;;;5.63;3.27;;;;;;;17.03;62.30;102033.09;5280142;28;20678;-75
2022/07/05 00:05:47;;;;;;;5.27;2.60;;;;;;;17.28;61.82;102012.88;5272916;28;20060;-75
2022/07/05 00:08:18;;;;;;;6.83;3.23;;;;;;;16.90;63.76;102039.22;5289041;28;20111;-74
2022/07/05 00:10:49;;;;;;;10.47;3.70;;;;;;;17.10;62.31;102018.53;5286843;28;20025;-75
2022/07/05 00:13:21;;;;;;;4.73;3.00;;;;;;;17.35;61.89;102026.56;5272584;28;20109;-76
2022/07/05 00:15:53;;;;;;;6.13;3.83;;;;;;;17.39;61.61;102007.69;5270396;28;20032;-76
2022/07/05 00:18:24;;;;;;;8.27;4.97;;;;;;;17.23;61.65;102001.75;5287062;28;20028;-75
2022/07/05 00:20:56;;;;;;;7.33;4.70;;;;;;;16.99;62.76;102013.94;5273073;28;20017;-75
2022/07/05 00:23:28;;;;;;;8.33;4.87;;;;;;;17.19;62.98;102027.63;5275132;28;20040;-74
2022/07/05 00:25:59;;;;;;;8.37;4.50;;;;;;;16.84;63.29;101999.97;5285044;28;20456;-74
2022/07/05 00:28:30;;;;;;;7.47;4.10;;;;;;;17.05;62.66;102000.25;5273776;28;20035;-75
2022/07/05 00:31:02;;;;;;;7.73;4.00;;;;;;;16.90;63.63;102025.13;5277306;28;20505;-74
2022/07/05 00:33:33;;;;;;;8.17;4.50;;;;;;;16.83;63.61;101997.41;5290231;28;20032;-74
2022/07/05 00:36:04;;;;;;;6.03;4.20;;;;;;;16.79;64.27;102026.72;5294450;28;20032;-74
2022/07/05 00:38:36;;;;;;;10.10;4.20;;;;;;;16.53;64.64;101994.94;5279600;28;20040;-74
2022/07/05 00:41:07;;;;;;;7.10;4.03;;;;;;;16.65;64.48;101998.56;5291711;28;20424;-74
2022/07/05 00:43:52;;;;;;;8.00;3.53;;;;;;;16.80;63.55;101987.88;5294817;28;20046;-74
2022/07/05 00:46:24;;;;;;;9.53;4.13;;;;;;;16.63;64.64;102020.78;5276223;28;20081;-74
2022/07/05 00:48:57;;;;;;;5.60;3.70;;;;;;;16.30;65.71;101989.38;5285083;28;20444;-73
2022/07/05 00:51:30;;;;;;;6.40;3.37;;;;;;;16.65;65.25;102014.41;5276370;28;20035;-73
2022/07/05 00:54:02;;;;;;;6.05;3.88;;;;;;;16.59;64.49;101991.03;5274538;28;20716;-74
2022/07/05 00:56:33;;;;;;;7.40;3.60;;;;;;;16.76;64.58;102011.06;5286918;28;20031;-73
2022/07/05 00:59:05;;;;;;;7.20;4.00;;;;;;;16.54;65.08;102001.09;5293350;28;20726;-74
2022/07/05 01:01:36;;;;;;;4.73;3.50;;;;;;;16.55;64.78;101990.41;5278381;28;20142;-74
2022/07/05 01:04:08;;;;;;;5.17;3.60;;;;;;;16.61;65.06;102002.38;5289156;28;20024;-74
2022/07/05 01:06:42;;;;;;;4.23;3.07;;;;;;;16.47;65.55;101992.72;5294389;28;20012;-74
2022/07/05 01:09:16;;;;;;;7.93;3.15;;;;;;;16.56;66.12;102029.09;5291385;28;20080;-73
2022/07/05 01:11:50;;;;;;;6.95;3.70;;;;;;;16.45;66.73;102018.41;5294878;28;20107;-74
2022/07/05 01:14:23;;;;;;;3.92;3.42;;;;;;;16.30;66.48;102004.41;5292418;28;20037;-75
2022/07/05 01:16:54;;;;;;;6.37;3.07;;;;;;;16.50;66.21;102020.72;5273880;28;20706;-75
2022/07/05 01:19:28;;;;;;;5.37;3.33;;;;;;;16.28;66.38;101995.72;5290551;28;20058;-74
2022/07/05 01:22:07;;;;;;;4.95;3.85;;;;;;;16.35;66.78;102002.31;5274769;28;20020;-74
2022/07/05 01:24:39;;;;;;;4.20;2.50;;;;;;;16.24;66.90;101994.22;5279918;28;20028;-74
2022/07/05 01:27:11;;;;;;;5.30;3.27;;;;;;;16.26;67.21;102003.78;5293640;28;20379;-74
2022/07/05 01:29:43;;;;;;;4.80;2.97;;;;;;;15.98;68.69;102021.38;5281747;28;20058;-74
2022/07/05 01:32:14;;;;;;;5.23;3.30;;;;;;;15.61;70.12;102000.81;5273432;28;20036;-74
2022/07/05 01:34:46;;;;;;;7.80;3.17;;;;;;;15.83;69.27;102002.09;5292870;28;20703;-74
2022/07/05 01:37:18;;;;;;;6.43;3.47;;;;;;;16.00;68.92;102010.75;5293949;28;20020;-73
2022/07/05 01:39:51;;;;;;;7.47;3.17;;;;;;;15.78;69.38;101994.44;5293620;28;20155;-74
2022/07/05 01:42:22;;;;;;;4.63;3.10;;;;;;;15.83;69.47;102002.09;5293498;28;20032;-74
2022/07/05 01:44:54;;;;;;;5.90;3.23;;;;;;;15.81;69.10;102003.97;5282933;28;20105;-74
2022/07/05 01:47:25;;;;;;;4.80;3.20;;;;;;;15.73;69.52;102005.31;5273571;28;20016;-75
2022/07/05 01:49:59;;;;;;;5.87;3.83;;;;;;;15.41;71.35;102012.63;5282223;28;20058;-74
2022/07/05 01:52:33;;;;;;;5.65;3.20;;;;;;;15.73;70.35;102026.44;5293842;28;20500;-75
2022/07/05 01:55:05;;;;;;;6.60;3.47;;;;;;;15.92;69.62;102034.97;5280096;28;20044;-75
2022/07/05 01:57:36;;;;;;;4.43;3.53;;;;;;;15.92;69.24;102027.91;5273603;28;20064;-75
2022/07/05 02:00:08;;;;;;;6.60;3.60;;;;;;;15.58;70.55;102009.78;5286617;28;20032;-75
2022/07/05 02:02:41;;;;;;;5.47;3.63;;;;;;;15.64;70.13;102003.25;5291203;28;20113;-76
2022/07/05 02:05:13;;;;;;;6.70;4.67;;;;;;;15.79;69.80;102027.00;5292934;28;20028;-76
2022/07/05 02:07:48;;;;;;;5.50;4.37;;;;;;;15.70;69.55;101994.94;5292585;28;20077;-74
2022/07/05 02:10:20;;;;;;;5.40;3.77;;;;;;;15.52;69.78;101991.66;5283486;28;20051;-75
2022/07/05 02:12:51;;;;;;;6.87;4.30;;;;;;;15.71;69.30;101996.63;5292903;28;20063;-75
2022/07/05 02:15:22;;;;;;;6.00;3.73;;;;;;;15.63;69.75;102014.75;5289526;28;20023;-76
2022/07/05 02:17:54;;;;;;;5.17;3.77;;;;;;;15.48;70.05;101993.66;5293148;28;20111;-76
2022/07/05 02:20:26;;;;;;;8.10;3.67;;;;;;;15.45;69.94;101991.19;5276414;28;20028;-76
2022/07/05 02:22:57;;;;;;;7.00;4.53;;;;;;;15.55;69.81;102001.19;5275405;28;20028;-77
2022/07/05 02:25:29;;;;;;;5.53;3.67;;;;;;;15.35;70.25;102000.63;5288744;28;20100;-76
2022/07/05 02:28:01;;;;;;;6.20;4.27;;;;;;;15.41;70.14;101994.97;5291760;28;20925;-76
2022/07/05 02:30:32;;;;;;;6.57;4.17;;;;;;;15.38;70.46;102016.28;5292076;28;20032;-76
2022/07/05 02:33:03;;;;;;;6.00;4.37;;;;;;;15.43;69.95;101998.38;5274263;28;20063;-75
2022/07/05 02:35:35;;;;;;;7.17;4.30;;;;;;;15.41;70.58;102026.66;5292169;28;20628;-76
2022/07/05 02:38:06;;;;;;;5.43;4.03;;;;;;;15.22;70.51;101993.47;5279952;28;20028;-76
2022/07/05 02:40:38;;;;;;;5.90;4.53;;;;;;;15.22;71.19;102017.22;5271596;28;20032;-75
2022/07/05 02:43:09;;;;;;;7.37;4.60;;;;;;;15.09;71.20;101997.81;5271739;28;20032;-76
2022/07/05 02:45:40;;;;;;;7.20;4.40;;;;;;;15.27;70.70;102000.28;5287921;28;20050;-76
2022/07/05 02:48:12;;;;;;;6.83;3.87;;;;;;;15.34;70.12;102009.50;5273876;28;20459;-76
2022/07/05 02:50:43;;;;;;;7.23;4.13;;;;;;;15.09;71.43;102011.00;5284059;28;20033;-75
2022/07/05 02:53:15;;;;;;;8.33;4.80;;;;;;;15.09;70.85;102003.09;5270519;28;20143;-75
2022/07/05 02:55:46;;;;;;;7.60;5.60;;;;;;;15.05;71.12;101991.88;5287996;28;20438;-75
2022/07/05 02:58:17;;;;;;;7.20;4.63;;;;;;;15.10;71.16;102010.91;5292403;28;20119;-75
2022/07/05 03:00:49;;;;;;;12.30;5.83;;;;;;;15.00;72.12;102031.72;5287468;28;20024;-75
2022/07/05 03:03:20;;;;;;;9.47;5.23;;;;;;;14.89;71.89;102002.50;5291263;28;20123;-77
2022/07/05 03:05:52;;;;;;;9.93;4.67;;;;;;;14.82;72.34;101995.91;5275651;28;20036;-76
2022/07/05 03:08:23;;;;;;;9.97;5.60;;;;;;;14.91;73.08;102021.72;5271800;28;20024;-76
2022/07/05 03:10:54;;;;;;;6.93;4.57;;;;;;;14.91;72.92;102037.53;5287639;28;20036;-75
2022/07/05 03:13:26;;;;;;;11.80;4.50;;;;;;;14.82;73.23;102033.66;5292013;28;20036;-75
2022/07/05 03:15:57;;;;;;;7.40;5.27;;;;;;;14.65;73.95;102018.81;5288072;28;20372;-75
2022/07/05 03:18:28;;;;;;;10.13;4.83;;;;;;;14.47;74.47;102007.56;5277466;28;20036;-75
2022/07/05 03:21:00;;;;;;;12.13;4.70;;;;;;;14.90;73.16;102051.69;5286713;28;20039;-75
2022/07/05 03:23:31;;;;;;;9.80;4.90;;;;;;;14.60;74.56;102040.19;5277108;28;20639;-75
2022/07/05 03:26:02;;;;;;;8.57;4.80;;;;;;;14.59;74.11;102021.81;5290234;28;20035;-73
2022/07/05 03:28:34;;;;;;;6.27;4.67;;;;;;;14.76;74.05;102055.97;5291487;28;20715;-75
2022/07/05 03:31:05;;;;;;;10.13;5.30;;;;;;;14.38;75.74;102016.84;5291101;28;20038;-74
2022/07/05 03:33:37;;;;;;;8.97;5.30;;;;;;;14.49;76.80;102051.31;5289347;28;20028;-74
2022/07/05 03:36:08;;;;;;;8.60;5.20;;;;;;;14.26;76.11;102027.13;5286167;28;20032;-74
2022/07/05 03:38:40;;;;;;;7.30;4.70;;;;;;;14.43;75.73;102025.34;5270123;28;20055;-74
2022/07/05 03:41:11;;;;;;;10.40;5.50;;;;;;;14.25;76.21;102020.19;5271652;28;20066;-74
2022/07/05 03:43:42;;;;;;;7.40;4.80;;;;;;;14.31;75.78;102012.84;5287052;28;20038;-74
2022/07/05 03:46:14;;;;;;;8.00;5.47;;;;;;;14.48;75.61;102033.81;5283047;28;20047;-75
2022/07/05 03:48:45;;;;;;;7.47;5.37;;;;;;;14.67;75.75;102056.47;5278061;28;20024;-75
2022/07/05 03:51:16;;;;;;;9.03;6.13;;;;;;;14.65;75.41;102053.06;5283834;28;20139;-75
2022/07/05 03:53:48;;;;;;;8.00;5.83;;;;;;;14.48;75.62;102036.47;5292001;28;20134;-75
2022/07/05 03:56:22;;;;;;;8.97;6.47;;;;;;;14.29;76.98;102031.41;5280591;28;20090;-75
2022/07/05 03:58:54;;;;;;;7.37;6.07;;;;;;;14.35;76.34;102030.16;5272600;28;20040;-75
2022/07/05 04:01:25;;;;;;;7.30;5.67;;;;;;;14.61;74.89;102038.38;5280540;28;20391;-75
2022/07/05 04:03:57;;;;;;;6.87;5.50;;;;;;;14.53;75.38;102033.56;5308666;28;20027;-75
2022/07/05 04:06:28;;;;;;;9.33;5.87;;;;;;;14.59;75.35;102043.72;5295829;28;20028;-75
2022/07/05 04:08:59;;;;;;;8.10;6.77;;;;;;;14.59;75.14;102045.53;5294398;28;20391;-75
2022/07/05 04:11:31;;;;;;;7.73;6.57;;;;;;;14.82;74.61;102062.66;5295254;28;20408;-76
2022/07/05 04:14:02;;;;;;;10.23;6.10;;;;;;;14.64;75.13;102040.84;5291817;28;20055;-74
2022/07/05 04:16:34;;;;;;;9.57;6.33;;;;;;;14.77;74.62;102040.97;5275449;28;20060;-75
2022/07/05 04:19:05;;;;;;;10.00;6.13;;;;;;;14.68;75.57;102042.34;5284459;28;20055;-74
2022/07/05 04:21:36;;;;;;;8.37;6.40;;;;;;;14.75;74.32;102048.97;5295742;28;20031;-75
2022/07/05 04:24:08;;;;;;;7.83;6.23;;;;;;;15.03;74.44;102082.63;5294117;28;20031;-74
2022/07/05 04:26:39;;;;;;;10.23;6.97;;;;;;;14.71;75.13;102057.16;5295390;28;20016;-74
2022/07/05 04:29:10;;;;;;;9.63;7.27;;;;;;;14.87;74.44;102051.88;5293499;28;20395;-74
2022/07/05 04:31:42;;;;;;;9.47;7.00;;;;;;;15.05;74.35;102070.16;5278266;28;20028;-75
2022/07/05 04:34:13;;;;;;;9.77;6.70;;;;;;;14.94;74.02;102045.25;5277750;28;20024;-75
2022/07/05 04:36:45;;;;;;;7.30;6.43;;;;;;;15.04;74.71;102073.75;5294178;28;20024;-75
2022/07/05 04:39:16;;;;;;;9.87;7.27;;;;;;;15.17;74.16;102084.44;5285311;28;20041;-75
2022/07/05 04:41:47;;;;;;;9.43;7.57;;;;;;;14.88;74.92;102053.56;5274325;28;20044;-75
2022/07/05 04:44:19;;;;;;;9.53;7.17;;;;;;;14.99;74.03;102045.84;5278906;28;20036;-73
2022/07/05 04:46:50;;;;;;;9.23;7.73;;;;;;;15.13;73.95;102067.94;5294726;28;20023;-75
2022/07/05 04:49:21;;;;;;;9.07;7.60;;;;;;;14.81;75.06;102054.84;5275586;28;20035;-74
2022/07/05 04:51:53;;;;;;;8.93;8.03;;;;;;;14.71;75.20;102052.75;5294414;28;20028;-75
2022/07/05 04:54:24;;;;;;;11.73;8.10;;;;;;;14.97;74.14;102049.53;5283071;28;20031;-75
2022/07/05 04:56:55;;;;;;;12.60;8.43;;;;;;;14.97;74.49;102046.88;5288293;28;20035;-75
2022/07/05 04:59:27;;;;;;;8.53;7.47;;;;;;;15.04;74.62;102042.09;5291396;28;20673;-76
2022/07/05 05:01:58;;;;;;;13.13;7.87;;;;;;;15.06;75.51;102045.50;5290875;28;20024;-75
2022/07/05 05:04:29;;;;;;;13.47;8.30;;;;;;;15.09;74.93;102055.84;5283984;28;20032;-75
2022/07/05 05:07:01;;;;;;;11.30;7.57;;;;;;;15.36;74.04;102081.50;5282473;28;20032;-75
2022/07/05 05:09:32;;;;;;;11.53;8.17;;;;;;;15.18;74.27;102055.31;5272440;28;20039;-75
2022/07/05 05:12:04;;;;;;;11.27;8.03;;;;;;;15.33;74.93;102082.56;5273413;28;20066;-74
2022/07/05 05:14:35;;;;;;;17.47;7.67;;;;;;;15.06;77.23;102083.25;5289313;28;20051;-75
2022/07/05 05:17:07;;;;;;;14.80;8.70;;;;;;;15.15;75.12;102055.47;5274214;28;20750;-73
2022/07/05 05:19:38;;;;;;;11.33;8.63;;;;;;;15.30;75.58;102079.25;5288717;28;20032;-75
2022/07/05 05:22:10;;;;;;;12.03;7.27;;;;;;;15.40;74.90;102069.84;5278858;28;20020;-75
2022/07/05 05:24:41;;;;;;;11.43;7.70;;;;;;;15.57;75.15;102089.06;5288412;28;20665;-75
2022/07/05 05:27:13;;;;;;;13.57;8.47;;;;;;;15.39;74.49;102056.72;5301282;28;20103;-75
2022/07/05 05:29:44;;;;;;;13.73;8.23;;;;;;;15.23;75.71;102058.53;5280336;28;20020;-75
2022/07/05 05:32:15;;;;;;;16.47;8.10;;;;;;;15.45;75.13;102059.84;5275888;28;20032;-75
2022/07/05 05:34:47;;;;;;;11.60;8.37;;;;;;;15.57;73.96;102060.00;5289284;28;20467;-76
2022/07/05 05:37:18;;;;;;;13.63;8.80;;;;;;;15.67;73.45;102061.16;5280077;28;20038;-76
2022/07/05 05:39:49;;;;;;;13.73;8.50;;;;;;;15.85;73.28;102111.97;5285545;28;20020;-76
2022/07/05 05:42:20;;;;;;;14.17;8.83;;;;;;;15.93;73.01;102108.88;5273202;28;20039;-76
2022/07/05 05:44:52;;;;;;;13.97;8.43;;;;;;;15.96;72.64;102111.31;5275036;28;20036;-76
2022/07/05 05:47:26;;;;;;;12.27;8.47;;;;;;;15.96;73.03;102098.09;5275759;28;20693;-76
2022/07/05 05:53:33;;;;;;;10.80;8.13;;;;;;;15.81;71.49;102067.38;5272832;28;19920;-76
2022/07/05 05:56:16;;;;;;;10.73;8.23;;;;;;;16.13;71.84;102120.00;5283693;28;20043;-77
2022/07/05 05:58:48;;;;;;;12.93;7.93;;;;;;;16.14;71.52;102105.84;5272066;28;20086;-75
2022/07/05 06:01:19;;;;;;;7.93;6.93;;;;;;;16.13;71.57;102103.31;5273219;28;20028;-75
2022/07/05 06:03:50;;;;;;;8.70;6.93;;;;;;;16.14;72.18;102092.63;5273090;28;20039;-74
2022/07/05 06:06:22;;;;;;;11.73;8.43;;;;;;;16.30;71.79;102126.84;5271890;28;20111;-75
2022/07/05 06:08:53;;;;;;;8.60;7.80;;;;;;;16.25;71.31;102099.03;5272646;28;20732;-75
2022/07/05 06:11:24;;;;;;;10.77;8.33;;;;;;;16.29;70.77;102097.88;5272627;28;20519;-75
2022/07/05 06:13:56;;;;;;;9.80;8.00;;;;;;;16.43;71.33;102110.19;5272320;28;20103;-75
2022/07/05 06:16:27;;;;;;;10.50;8.20;;;;;;;16.44;70.04;102104.81;5274397;28;20052;-74
2022/07/05 06:18:58;;;;;;;10.83;8.70;;;;;;;16.66;69.14;102124.56;5288403;28;20066;-75
2022/07/05 06:21:30;;;;;;;14.80;9.10;;;;;;;16.60;69.31;102101.16;5275241;28;20088;-75
2022/07/05 06:24:01;;;;;;;14.63;11.07;;;;;;;16.78;68.14;102130.84;5291565;28;20036;-75
2022/07/05 06:26:32;;;;;;;14.90;12.07;;;;;;;16.66;67.93;102105.19;5288724;28;20051;-76
2022/07/05 06:29:03;;;;;;;14.33;11.63;;;;;;;16.80;68.17;102128.09;5276810;28;20035;-74
2022/07/05 06:31:35;;;;;;;11.40;10.20;;;;;;;16.73;67.47;102117.06;5280787;28;20086;-75
2022/07/05 06:34:06;;;;;;;12.73;10.90;;;;;;;16.92;68.32;102131.72;5267787;28;20515;-74
2022/07/05 06:36:38;;;;;;;11.90;10.70;;;;;;;16.93;67.12;102107.81;5288679;28;20392;-75
2022/07/05 06:39:09;;;;;;;11.80;9.07;;;;;;;17.11;67.30;102131.38;5282133;28;20455;-76
2022/07/05 06:41:40;;;;;;;11.87;9.20;;;;;;;17.05;68.04;102135.25;5280931;28;20035;-75
2022/07/05 06:44:11;;;;;;;11.70;8.70;;;;;;;17.30;67.54;102143.34;5283964;28;20024;-75
2022/07/05 06:46:43;;;;;;;10.07;8.20;;;;;;;17.46;66.82;102134.34;5269270;28;20024;-75
2022/07/05 06:49:14;;;;;;;9.80;8.30;;;;;;;17.29;66.83;102116.03;5267491;28;20029;-76
2022/07/05 06:51:45;;;;;;;10.57;7.80;;;;;;;17.32;66.63;102108.81;5269005;28;20392;-75
2022/07/05 06:54:17;;;;;;;9.23;7.43;;;;;;;17.42;66.60;102101.94;5269931;28;20025;-75
2022/07/05 06:56:48;;;;;;;9.43;8.43;;;;;;;17.68;66.28;102144.31;5271353;28;20046;-76
2022/07/05 06:59:19;;;;;;;9.63;7.00;;;;;;;17.65;66.60;102113.59;5271037;28;20376;-76
2022/07/05 07:01:51;;;;;;;14.13;7.90;;;;;;;17.54;66.28;102097.63;5269835;28;20033;-76
2022/07/05 07:04:22;;;;;;;8.60;6.80;;;;;;;17.65;65.98;102129.47;5270817;28;20536;-75
2022/07/05 07:06:53;;;;;;;7.83;7.03;;;;;;;17.75;66.40;102119.06;5270775;28;20021;-75
2022/07/05 07:09:25;;;;;;;9.83;6.43;;;;;;;18.00;66.02;102116.50;5270273;28;20017;-75
2022/07/05 07:11:56;;;;;;;8.90;7.27;;;;;;;18.47;64.51;102110.53;5270615;28;20028;-75
2022/07/05 07:14:27;;;;;;;10.53;6.87;;;;;;;18.59;64.33;102122.88;5302870;28;20025;-76
2022/07/05 07:16:59;;;;;;;10.47;6.47;;;;;;;18.84;63.98;102144.09;5268267;28;20489;-75
2022/07/05 07:19:30;;;;;;;11.53;6.40;;;;;;;18.67;64.08;102121.47;5270249;28;20040;-75
2022/07/05 07:22:02;;;;;;;10.07;5.90;;;;;;;18.72;65.51;102106.06;5270636;28;20028;-75
2022/07/05 07:24:33;;;;;;;10.33;5.87;;;;;;;18.75;63.67;102124.38;5270649;28;20112;-75
2022/07/05 07:27:06;;;;;;;11.60;6.63;;;;;;;18.68;64.15;102115.19;5270959;28;20490;-75
2022/07/05 07:29:38;;;;;;;10.67;6.10;;;;;;;18.89;64.60;102143.72;5271733;28;20410;-75
2022/07/05 07:32:10;;;;;;;11.73;7.70;;;;;;;18.81;64.55;102137.22;5269926;28;20024;-75
2022/07/05 07:34:41;;;;;;;12.87;7.10;;;;;;;18.79;65.30;102123.22;5275654;28;20070;-75
2022/07/05 07:37:13;;;;;;;12.30;6.83;;;;;;;18.77;65.75;102138.41;5275623;28;20032;-75
2022/07/05 07:39:45;;;;;;;13.23;7.40;;;;;;;18.72;65.15;102143.19;5275723;28;20476;-75
2022/07/05 07:42:16;;;;;;;13.23;7.30;;;;;;;18.84;65.56;102158.22;5274015;28;20032;-75
2022/07/05 07:44:47;;;;;;;17.70;7.87;;;;;;;18.69;66.27;102138.13;5275437;28;20027;-75
2022/07/05 07:47:18;;;;;;;11.73;6.20;;;;;;;18.60;67.62;102119.28;5272560;28;20028;-75
2022/07/05 07:49:50;;;;;;;18.63;7.00;;;;;;;18.71;67.46;102158.25;5270306;28;20060;-75
2022/07/05 07:52:21;;;;;;;11.47;5.87;;;;;;;18.92;66.72;102132.91;5272268;28;20543;-76
2022/07/05 07:54:53;;;;;;;13.97;6.33;;;;;;;19.21;66.01;102165.25;5272221;28;20339;-76
2022/07/05 07:57:24;;;;;;;11.40;6.13;;;;;;;19.25;65.84;102155.25;5271385;28;20519;-76
2022/07/05 07:59:56;;;;;;;17.37;7.43;;;;;;;19.23;65.82;102127.94;5270697;28;20253;-76
2022/07/05 08:02:27;;;;;;;15.90;5.70;;;;;;;19.35;66.16;102131.47;5271960;28;20025;-76
2022/07/05 08:04:58;;;;;;;11.97;5.80;;;;;;;19.47;65.21;102134.97;5272572;28;20032;-75
2022/07/05 08:07:30;;;;;;;13.90;5.93;;;;;;;19.43;64.89;102136.16;5272496;28;20483;-75
2022/07/05 08:10:01;;;;;;;14.23;6.83;;;;;;;19.58;64.28;102153.56;5271904;28;20298;-75
2022/07/05 08:12:33;;;;;;;12.93;6.60;;;;;;;19.49;65.55;102158.75;5272341;28;20031;-76
2022/07/05 08:15:07;;;;;;;14.77;6.33;;;;;;;19.66;64.79;102171.59;5271386;28;20032;-76
2022/07/05 08:21:30;;;;;;;14.63;6.77;;;;;;;19.64;63.90;102159.38;5270903;28;20124;-76
2022/07/05 08:23:20;;;;;;;11.13;7.57;;;;;;;19.65;63.94;102146.00;5271639;28;20392;-76
2022/07/05 08:25:51;;;;;;;16.93;7.20;;;;;;;19.77;65.24;102133.53;5303862;28;20028;-75
2022/07/05 08:28:24;;;;;;;11.87;6.57;;;;;;;19.85;64.60;102148.00;5271911;28;20024;-76
2022/07/05 08:30:55;;;;;;;15.17;8.20;;;;;;;19.76;62.98;102121.19;5270772;28;20077;-75
2022/07/05 08:33:26;;;;;;;16.93;9.70;;;;;;;19.98;63.14;102124.81;5271507;28;20028;-75
2022/07/05 08:35:57;;;;;;;22.77;8.97;;;;;;;20.48;63.22;102158.09;5271620;28;20032;-76
2022/07/05 08:38:29;;;;;;;17.27;8.87;;;;;;;20.79;61.88;102139.59;5271304;28;20028;-76
2022/07/05 08:41:01;;;;;;;13.23;8.10;;;;;;;21.18;60.29;102174.66;5271252;28;20043;-75
2022/07/05 08:43:36;;;;;;;16.80;8.00;;;;;;;21.46;59.50;102140.31;5271763;28;20024;-76
2022/07/05 08:46:10;;;;;;;15.73;8.05;;;;;;;22.01;57.49;102160.47;5269840;28;20104;-75
2022/07/05 08:48:43;;;;;;;13.15;7.05;;;;;;;22.20;57.38;102165.03;5270289;28;20436;-77
2022/07/05 08:51:17;;;;;;;11.82;7.28;;;;;;;21.98;56.93;102110.09;5303751;28;20305;-76
2022/07/05 08:53:50;;;;;;;8.48;5.55;;;;;;;22.18;56.62;102156.34;5271990;28;20024;-76
2022/07/05 08:56:21;;;;;;;14.00;6.10;;;;;;;22.61;55.05;102166.75;5303343;28;20089;-77
2022/07/05 08:58:53;;;;;;;14.45;7.00;;;;;;;23.11;53.88;102140.88;5270755;28;20713;-76
2022/07/05 09:01:25;;;;;;;12.82;6.28;;;;;;;23.98;52.25;102153.25;5268958;28;20209;-76
2022/07/05 09:04:00;;;;;;;14.40;5.28;;;;;;;24.35;50.89;102156.84;5270241;28;20097;-76
2022/07/05 09:06:35;;;;;;;12.20;7.00;;;;;;;25.21;48.38;102159.06;5271504;28;20032;-75
2022/07/05 09:09:07;;;;;;;12.52;5.55;;;;;;;25.33;47.08;102153.44;5271343;28;20474;-76
2022/07/05 09:11:44;;;;;;;12.15;4.68;;;;;;;25.76;47.10;102160.72;5271562;28;20035;-75
2022/07/05 09:14:24;;;;;;;11.65;4.35;;;;;;;26.19;47.51;102155.31;5271136;28;20024;-75
2022/07/05 09:16:56;;;;;;;5.05;2.65;;;;;;;26.46;42.41;102161.44;5268855;28;20043;-75
2022/07/05 09:19:29;;;;;;;8.05;2.67;;;;;;;26.46;41.60;102164.13;5270655;28;20028;-75
2022/07/05 09:22:03;;;;;;;12.82;4.53;;;;;;;26.23;42.42;102172.78;5270320;28;20024;-75
2022/07/05 09:24:44;;;;;;;;;;;;;;;26.89;44.65;102176.53;5270707;28;20036;-75
2022/07/05 09:27:16;;;;;;;8.05;3.42;;;;;;;25.45;44.31;102137.94;5271024;28;19904;-75
2022/07/05 09:29:55;;;;;;;9.57;3.83;;;;;;;26.14;43.73;102136.16;5270925;28;20021;-74
2022/07/05 09:32:30;;;;;;;7.25;3.40;;;;;;;26.39;40.90;102163.91;5269517;28;20082;-75
2022/07/05 09:35:20;;;;;;;10.88;3.38;;;;;;;26.74;41.77;102171.81;5270615;28;20029;-75
2022/07/05 09:37:52;;;;;;;9.38;2.75;;;;;;;27.30;38.92;102163.06;5271052;28;20017;-75
2022/07/05 09:40:23;;;;;;;6.82;2.72;;;;;;;27.83;37.71;102155.47;5269283;28;20259;-75
2022/07/05 09:43:10;;;;;;;9.60;3.92;;;;;;;28.31;38.54;102141.06;5268878;28;20020;-75
2022/07/05 09:46:04;;;;;;;9.60;2.83;;;;;;;28.79;38.26;102159.72;5270935;28;20056;-75
2022/07/05 09:48:35;;;;;;;6.07;2.60;;;;;;;27.64;34.91;102141.41;5269804;28;20024;-75
2022/07/05 09:51:11;;;;;;;5.30;3.28;;;;;;;27.58;37.13;102142.94;5270827;28;20062;-75
2022/07/05 09:53:53;;;;;;;8.20;2.72;;;;;;;27.84;36.72;102158.00;5268812;28;20516;-75
2022/07/05 09:56:29;;;;;;;7.97;3.00;;;;;;;27.01;36.20;102148.31;5269624;28;20024;-75
2022/07/05 09:59:14;;;;;;;7.60;2.78;;;;;;;26.74;38.60;102118.09;5270064;28;20037;-74
2022/07/05 10:01:46;;;;;;;7.20;2.95;;;;;;;25.65;39.58;102121.59;5269460;28;20396;-74
2022/07/05 10:04:18;;;;;;;9.60;2.92;;;;;;;26.31;37.87;102137.88;5269909;28;20086;-75
2022/07/05 10:06:49;;;;;;;6.95;1.98;;;;;;;25.36;39.18;102139.72;5267240;28;20025;-75
2022/07/05 10:09:21;;;;;;;6.72;2.42;;;;;;;25.57;39.04;102144.66;5268667;28;20115;-74
2022/07/05 10:11:53;;;;;;;9.75;2.50;;;;;;;25.28;38.05;102159.28;5268883;28;20050;-74
2022/07/05 10:14:26;;;;;;;9.10;2.20;;;;;;;24.82;40.45;102130.78;5265432;28;20680;-75
2022/07/05 10:17:01;;;;;;;5.70;2.00;;;;;;;25.04;40.77;102122.44;5266543;28;20040;-75
2022/07/05 10:19:38;;;;;;;7.30;2.75;;;;;;;25.62;39.53;102158.44;5269626;28;20024;-75
2022/07/05 10:22:11;;;;;;;5.80;2.28;;;;;;;25.33;38.21;102150.75;5268921;28;20029;-75
2022/07/05 10:24:43;;;;;;;5.10;2.15;;;;;;;25.33;38.93;102138.19;5269746;28;20016;-75
2022/07/05 10:27:15;;;;;;;7.10;2.60;;;;;;;25.32;39.92;102149.09;5270102;28;20073;-75
2022/07/05 10:29:50;;;;;;;8.95;3.60;;;;;;;25.59;39.95;102153.41;5268400;28;20066;-75
2022/07/05 10:32:22;;;;;;;6.70;2.63;;;;;;;26.40;39.84;102148.66;5268964;28;20020;-75
2022/07/05 10:34:55;;;;;;;4.73;2.23;;;;;;;26.87;37.09;102135.53;5270231;28;20306;-75
2022/07/05 10:37:29;;;;;;;9.00;2.72;;;;;;;27.02;38.09;102163.41;5277037;28;20028;-75
2022/07/05 10:40:04;;;;;;;9.68;3.72;;;;;;;26.76;38.32;102155.56;5271675;28;20468;-75
2022/07/05 10:42:45;;;;;;;5.63;2.53;;;;;;;26.96;36.91;102168.63;5275268;28;20518;-75
2022/07/05 10:45:35;;;;;;;4.38;2.17;;;;;;;27.00;36.76;102151.16;5272672;28;20107;-75
2022/07/05 10:48:09;;;;;;;4.80;1.70;;;;;;;27.54;36.95;102158.59;5272751;28;20954;-76
2022/07/05 10:50:43;;;;;;;6.20;1.55;;;;;;;27.37;36.26;102154.31;5265312;28;20031;-75
2022/07/05 10:53:21;;;;;;;3.08;1.80;;;;;;;27.94;33.42;102132.72;5268986;28;20039;-75
2022/07/05 10:56:14;;;;;;;5.20;2.00;;;;;;;28.55;34.53;102153.53;5266584;28;20032;-75
2022/07/05 10:58:46;;;;;;;6.13;1.42;;;;;;;29.11;32.43;102136.16;5259862;28;20036;-76
2022/07/05 11:01:18;;;;;;;4.40;1.70;;;;;;;28.94;31.85;102161.63;5268022;28;20108;-76
2022/07/05 11:04:01;;;;;;;4.75;2.22;;;;;;;28.56;33.80;102144.41;5267146;28;20119;-76
2022/07/05 11:06:38;;;;;;;3.92;1.88;;;;;;;28.10;33.79;102167.59;5270251;28;20039;-76
2022/07/05 11:09:09;;;;;;;6.32;2.25;;;;;;;28.00;32.52;102157.06;5272265;28;20035;-76
2022/07/05 11:11:42;;;;;;;6.13;1.92;;;;;;;27.57;31.95;102135.06;5264212;28;20044;-76
2022/07/05 11:14:25;;;;;;;4.47;1.67;;;;;;;27.40;33.60;102162.03;5273002;28;20144;-76
2022/07/05 11:17:11;;;;;;;5.40;1.38;;;;;;;27.22;34.28;102168.47;5261921;28;20411;-75
2022/07/05 11:20:01;;;;;;;2.85;1.40;;;;;;;26.87;34.75;102151.66;5257709;28;20353;-75
2022/07/05 11:22:34;;;;;;;5.28;1.38;;;;;;;26.72;34.74;102155.06;5258848;28;20036;-75
2022/07/05 11:25:06;;;;;;;5.20;1.20;;;;;;;26.93;34.71;102172.50;5276039;28;20130;-74
2022/07/05 11:28:17;;;;;;;6.90;1.48;;;;;;;27.01;35.24;102164.44;5260155;28;20036;-75
2022/07/05 11:30:55;;;;;;;7.22;1.55;;;;;;;26.09;36.86;102160.81;5258506;28;20060;-75
2022/07/05 11:33:34;;;;;;;4.18;1.50;;;;;;;26.68;36.13;102165.31;5266132;28;20502;-75
2022/07/05 11:36:26;;;;;;;5.43;1.92;;;;;;;26.61;36.86;102153.53;5277112;28;20035;-75
2022/07/05 11:39:07;;;;;;;4.00;2.08;;;;;;;26.44;37.28;102163.44;5277302;28;20032;-76
2022/07/05 11:41:38;;;;;;;4.43;1.40;;;;;;;26.26;36.46;102124.09;5257602;28;20032;-75
2022/07/05 11:44:11;;;;;;;6.88;1.58;;;;;;;26.28;35.62;102132.84;5255637;28;20055;-75
2022/07/05 11:46:43;;;;;;;5.15;1.70;;;;;;;25.87;36.68;102108.63;5255796;28;20051;-76
2022/07/05 11:49:40;;;;;;;6.43;1.70;;;;;;;26.80;36.06;102163.09;5272361;28;20055;-76
2022/07/05 11:52:34;;;;;;;7.05;1.67;;;;;;;26.92;35.58;102152.00;5250240;28;20056;-76
2022/07/05 11:55:28;;;;;;;3.40;1.90;;;;;;;26.82;35.87;102111.88;5263921;28;20024;-76